Time;durP1;ratioP1;P1;durP2;ratioP2;P2;SDS_P1;SDS_P2;PMS_P1;PMS_P2;Temp;Humidity;BMP_temperature;BMP_pressure;BME280_temperature;BME280_humidity;BME280_pressure;Samples;Min_cycle;Max_cycle;Signal;HPM_P1;HPM_P2
2022/04/21 00:02:24;;;;;;;6.60;5.90;;;11.10;77.10;;;;;;4942682;28;20278;-55
2022/04/21 00:04:50;;;;;;;6.03;5.43;;;12.50;78.60;;;;;;5016681;28;20180;-54
2022/04/21 00:07:15;;;;;;;6.60;5.93;;;11.10;77.20;;;;;;5016825;28;20204;-53
2022/04/21 00:09:41;;;;;;;6.40;5.77;;;11.10;77.50;;;;;;5017108;28;20180;-52
2022/04/21 00:12:07;;;;;;;6.00;5.40;;;10.90;77.70;;;;;;5016745;28;20255;-51
2022/04/21 00:14:32;;;;;;;6.27;5.40;;;11.00;78.80;;;;;;5016681;28;20165;-52
2022/04/21 00:16:58;;;;;;;6.10;5.50;;;10.60;77.70;;;;;;5017082;28;20219;-52
2022/04/21 00:19:23;;;;;;;7.23;5.93;;;10.80;78.60;;;;;;5016612;28;20546;-56
2022/04/21 00:24:33;;;;;;;6.63;5.93;;;;;;;;;;5017172;28;20179;-55
2022/04/21 00:26:59;;;;;;;6.87;6.10;;;11.00;77.70;;;;;;5016529;28;20200;-52
2022/04/21 00:29:25;;;;;;;7.10;5.67;;;11.20;80.90;;;;;;5016130;28;20248;-52
2022/04/21 00:31:50;;;;;;;6.17;5.03;;;11.20;80.80;;;;;;5016448;28;20176;-56
2022/04/21 00:34:18;;;;;;;6.17;5.57;;;10.90;79.10;;;;;;5015600;28;20197;-55
2022/04/21 00:36:44;;;;;;;6.77;5.67;;;10.90;79.00;;;;;;5016273;28;20228;-53
2022/04/21 00:39:10;;;;;;;7.00;5.53;;;10.90;79.30;;;;;;5015652;28;20180;-52
2022/04/21 00:41:36;;;;;;;6.27;5.50;;;10.80;79.30;;;;;;5015887;28;20185;-52
2022/04/21 00:44:01;;;;;;;6.67;5.97;;;10.80;79.70;;;;;;5015847;28;20200;-55
2022/04/21 00:46:28;;;;;;;6.87;6.10;;;10.80;79.70;;;;;;5015462;28;20200;-52
2022/04/21 00:48:54;;;;;;;6.67;5.53;;;10.80;79.90;;;;;;5015676;28;20169;-53
2022/04/21 00:51:22;;;;;;;6.70;6.00;;;10.70;80.30;;;;;;5015821;28;20176;-52
2022/04/21 00:53:47;;;;;;;8.57;7.57;;;10.70;80.40;;;;;;5014903;28;20211;-54
2022/04/21 00:56:13;;;;;;;7.90;7.10;;;10.60;80.30;;;;;;5015340;28;20176;-53
2022/04/21 00:58:41;;;;;;;7.80;7.00;;;10.60;80.40;;;;;;5016055;28;20180;-53
2022/04/21 01:02:46;;;;;;;6.77;6.07;;;10.70;81.00;;;;;;5015449;28;20198;-54
2022/04/21 01:03:55;;;;;;;9.43;7.07;;;10.60;81.00;;;;;;5014764;28;20192;-54
2022/04/21 01:06:24;;;;;;;7.80;6.63;;;10.60;82.10;;;;;;4998981;28;20285;-54
2022/04/21 01:08:50;;;;;;;8.30;7.50;;;10.60;82.10;;;;;;5016087;28;20172;-53
2022/04/21 01:11:16;;;;;;;8.37;7.57;;;10.60;81.80;;;;;;5016021;28;20187;-55
2022/04/21 01:13:42;;;;;;;7.93;7.13;;;10.50;81.20;;;;;;5015239;28;20197;-55
2022/04/21 01:16:08;;;;;;;8.13;6.63;;;10.40;81.20;;;;;;4997795;28;20189;-53
2022/04/21 01:18:34;;;;;;;8.17;7.20;;;10.40;81.50;;;;;;5016117;28;20571;-52
2022/04/21 01:20:59;;;;;;;9.33;6.70;;;10.50;81.60;;;;;;4998289;28;20187;-53
2022/04/21 01:23:25;;;;;;;9.10;6.80;;;10.50;82.50;;;;;;5015613;28;20553;-57
2022/04/21 01:25:51;;;;;;;7.53;6.77;;;10.50;81.60;;;;;;5016080;28;20212;-52
2022/04/21 01:28:18;;;;;;;8.57;6.90;;;10.50;82.20;;;;;;5015561;28;20177;-54
2022/04/21 01:30:43;;;;;;;8.20;7.37;;;10.50;82.40;;;;;;5015536;28;20179;-56
2022/04/21 01:33:09;;;;;;;9.17;6.77;;;10.50;82.50;;;;;;5014867;28;20200;-55
2022/04/21 01:35:35;;;;;;;7.20;6.50;;;10.50;82.50;;;;;;5015958;28;20191;-54
2022/04/21 01:43:29;;;;;;;7.77;6.97;;;10.50;82.40;;;;;;5015282;28;20589;-54
2022/04/21 01:45:55;;;;;;;7.90;6.93;;;10.50;82.80;;;;;;5015293;28;20204;-52
2022/04/21 01:48:21;;;;;;;9.53;7.00;;;10.40;82.30;;;;;;5015119;28;20172;-57
2022/04/21 01:50:46;;;;;;;7.90;7.00;;;10.40;82.40;;;;;;5015203;28;20179;-52
2022/04/21 01:53:12;;;;;;;8.97;6.83;;;10.30;82.80;;;;;;5014404;28;20204;-53
2022/04/21 01:55:37;;;;;;;7.57;6.87;;;10.30;83.20;;;;;;5015531;28;20180;-51
2022/04/21 01:58:03;;;;;;;8.00;7.20;;;10.40;83.60;;;;;;5015419;28;20172;-51
2022/04/21 02:00:29;;;;;;;8.07;7.27;;;10.40;84.20;;;;;;5015329;28;20173;-52
2022/04/21 02:02:55;;;;;;;7.83;7.13;;;10.40;83.80;;;;;;5014546;28;20200;-51
2022/04/21 02:05:20;;;;;;;8.73;7.70;;;10.40;84.30;;;;;;5014120;28;20168;-54
2022/04/21 02:07:46;;;;;;;7.93;6.93;;;10.40;83.60;;;;;;5014880;28;20173;-56
2022/04/21 02:10:13;;;;;;;9.47;7.20;;;10.40;83.50;;;;;;5014664;28;20177;-54
2022/04/21 02:12:40;;;;;;;7.07;6.17;;;10.30;84.40;;;;;;5014060;28;20218;-52
2022/04/21 02:15:06;;;;;;;7.37;6.40;;;10.40;84.50;;;;;;5014421;28;20642;-52
2022/04/21 02:17:33;;;;;;;8.57;7.00;;;10.30;84.30;;;;;;5014813;28;20175;-52
2022/04/21 02:19:59;;;;;;;8.70;6.67;;;10.30;84.70;;;;;;5014302;28;20188;-51
2022/04/21 02:22:25;;;;;;;7.23;6.53;;;10.30;85.40;;;;;;5013638;28;20223;-54
2022/04/21 02:24:51;;;;;;;8.07;7.23;;;10.30;84.80;;;;;;5014314;28;20177;-58
2022/04/21 02:27:16;;;;;;;7.10;6.40;;;10.30;84.40;;;;;;5014057;28;20493;-53
2022/04/21 02:29:42;;;;;;;7.57;6.17;;;10.30;84.30;;;;;;5014627;28;20542;-54
2022/04/21 02:32:08;;;;;;;9.50;7.00;;;10.40;83.70;;;;;;5014077;28;20165;-56
2022/04/21 02:34:34;;;;;;;9.47;7.77;;;10.30;84.20;;;;;;5013870;28;20239;-52
2022/04/21 02:37:00;;;;;;;9.10;8.00;;;10.30;84.70;;;;;;5014195;28;20192;-55
2022/04/21 02:39:25;;;;;;;8.70;7.90;;;10.30;84.90;;;;;;5013955;28;20184;-52
2022/04/21 02:41:52;;;;;;;8.70;7.80;;;10.30;85.00;;;;;;5013960;28;20186;-54
2022/04/21 02:44:18;;;;;;;11.03;7.40;;;10.40;85.20;;;;;;5013223;28;20279;-56
2022/04/21 02:46:43;;;;;;;9.23;7.67;;;10.40;85.40;;;;;;5013949;28;20264;-53
2022/04/21 02:49:09;;;;;;;10.33;7.47;;;10.40;85.90;;;;;;5014116;28;20191;-57
2022/04/21 02:51:35;;;;;;;8.97;8.07;;;10.50;86.50;;;;;;5014585;28;20200;-55
2022/04/21 02:59:31;;;;;;;10.00;8.17;;;10.40;86.70;;;;;;5014564;28;20255;-52
2022/04/21 03:01:57;;;;;;;10.10;8.03;;;10.40;86.10;;;;;;5013927;28;20275;-52
2022/04/21 03:04:23;;;;;;;9.27;8.37;;;10.40;86.10;;;;;;5013084;28;20193;-51
2022/04/21 03:06:49;;;;;;;8.50;7.63;;;10.40;85.90;;;;;;5013865;28;20200;-52
2022/04/21 03:09:14;;;;;;;8.93;8.03;;;10.40;86.10;;;;;;5014078;28;20180;-55
2022/04/21 03:11:40;;;;;;;7.90;7.10;;;10.40;86.70;;;;;;5013767;28;20204;-55
2022/04/21 03:14:05;;;;;;;7.87;7.07;;;10.40;85.70;;;;;;5013435;28;20192;-53
2022/04/21 03:16:31;;;;;;;8.70;7.80;;;10.40;86.10;;;;;;5013964;28;20184;-54
2022/04/21 03:18:56;;;;;;;8.17;7.30;;;11.30;86.80;;;;;;5013719;28;20184;-58
2022/04/21 03:24:21;;;;;;;9.07;7.97;;;10.40;86.50;;;;;;5014101;28;20595;-58
2022/04/21 03:26:51;;;;;;;8.60;7.70;;;10.40;87.10;;;;;;5014487;28;20274;-52
2022/04/21 03:29:17;;;;;;;8.80;7.90;;;10.40;87.40;;;;;;5013690;28;20180;-51
2022/04/21 03:31:43;;;;;;;9.10;8.20;;;10.40;87.40;;;;;;5013447;28;20259;-52
2022/04/21 03:34:13;;;;;;;7.97;7.17;;;10.40;87.50;;;;;;5014085;28;20244;-56
2022/04/21 03:36:49;;;;;;;9.20;7.17;;;10.40;88.10;;;;;;5014172;28;20153;-52
2022/04/21 03:39:20;;;;;;;8.40;7.30;;;10.40;88.10;;;;;;5017138;28;20167;-58
2022/04/21 03:41:46;;;;;;;7.40;6.60;;;12.20;90.00;;;;;;5017858;28;20160;-55
2022/04/21 03:44:12;;;;;;;7.60;6.87;;;10.40;87.90;;;;;;5016996;28;20192;-52
2022/04/21 03:46:38;;;;;;;8.17;7.10;;;10.40;87.60;;;;;;5017442;28;20685;-53
2022/04/21 03:49:07;;;;;;;7.50;6.70;;;10.30;87.70;;;;;;5017990;28;20661;-54
2022/04/21 03:51:33;;;;;;;9.33;6.80;;;10.30;88.20;;;;;;5017429;28;20223;-53
2022/04/21 03:53:59;;;;;;;7.10;6.23;;;10.30;88.70;;;;;;5016730;28;20218;-52
2022/04/21 03:56:26;;;;;;;8.73;6.20;;;10.30;88.80;;;;;;5017192;28;20172;-55
2022/04/21 03:58:52;;;;;;;7.77;6.40;;;10.30;88.60;;;;;;5016628;28;20164;-55
2022/04/21 04:01:18;;;;;;;7.00;5.93;;;10.30;88.90;;;;;;5017245;28;20523;-54
2022/04/21 04:03:44;;;;;;;6.83;5.67;;;10.30;89.10;;;;;;5016914;28;20204;-55
2022/04/21 04:11:39;;;;;;;6.90;6.20;;;10.20;89.50;;;;;;5017265;28;20207;-56
2022/04/21 04:14:07;;;;;;;6.90;6.23;;;10.20;90.00;;;;;;5016884;28;20569;-53
2022/04/21 04:16:34;;;;;;;8.67;7.23;;;10.20;89.70;;;;;;5017255;28;20203;-53
2022/04/21 04:19:00;;;;;;;8.00;6.63;;;10.20;89.80;;;;;;5017386;28;20200;-54
2022/04/21 04:21:26;;;;;;;8.00;6.40;;;10.20;90.10;;;;;;5017193;28;20692;-53
2022/04/21 04:23:51;;;;;;;7.10;6.40;;;10.20;90.10;;;;;;5015906;28;20192;-54
2022/04/21 04:26:17;;;;;;;7.80;7.00;;;10.20;90.30;;;;;;5016716;28;20200;-57
2022/04/21 04:28:42;;;;;;;7.57;6.83;;;11.80;91.10;;;;;;5016790;28;20176;-52
2022/04/21 04:31:08;;;;;;;7.83;6.97;;;10.20;90.30;;;;;;5016653;28;20169;-54
2022/04/21 04:33:34;;;;;;;8.03;7.23;;;10.20;90.50;;;;;;5015977;28;20192;-56
2022/04/21 04:36:00;;;;;;;7.97;7.17;;;10.20;90.40;;;;;;5016377;28;20175;-53
2022/04/21 04:38:26;;;;;;;7.60;6.87;;;10.20;90.40;;;;;;5016779;28;20184;-55
2022/04/21 04:40:51;;;;;;;7.97;6.80;;;10.20;90.40;;;;;;5016534;28;20180;-52
2022/04/21 04:43:17;;;;;;;7.80;7.00;;;10.20;90.40;;;;;;5016049;28;20692;-56
2022/04/21 04:48:26;;;;;;;7.50;6.70;;;10.30;90.40;;;;;;5016053;28;20688;-54
2022/04/21 04:50:52;;;;;;;8.00;6.70;;;10.30;90.70;;;;;;5016533;28;20181;-56
2022/04/21 04:53:17;;;;;;;7.07;6.37;;;10.40;91.40;;;;;;5016096;28;20208;-51
2022/04/21 04:55:43;;;;;;;6.93;6.13;;;10.40;91.50;;;;;;5016173;28;20637;-53
2022/04/21 04:58:09;;;;;;;7.97;6.53;;;10.40;91.10;;;;;;5016749;28;20180;-52
2022/04/21 05:00:34;;;;;;;8.03;7.20;;;10.50;91.70;;;;;;5016402;28;20184;-52
2022/04/21 05:03:00;;;;;;;9.83;8.23;;;10.60;90.70;;;;;;5010691;28;20276;-51
2022/04/21 05:05:25;;;;;;;8.17;7.30;;;10.30;90.50;;;;;;5015611;28;20789;-56
2022/04/21 05:07:51;;;;;;;7.20;6.50;;;10.20;90.60;;;;;;5016013;28;20172;-52
2022/04/21 05:10:18;;;;;;;8.37;6.60;;;10.20;90.30;;;;;;5015400;28;20168;-54
2022/04/21 05:12:44;;;;;;;7.30;6.60;;;10.10;90.50;;;;;;5015055;28;20195;-55
2022/04/21 05:15:10;;;;;;;8.27;6.70;;;10.20;90.80;;;;;;5015748;28;20538;-52
2022/04/21 05:17:35;;;;;;;7.93;7.10;;;10.30;90.40;;;;;;5015516;28;20176;-51
2022/04/21 05:20:02;;;;;;;8.73;6.63;;;10.40;91.50;;;;;;5015643;28;20184;-56
2022/04/21 05:22:37;;;;;;;7.40;6.60;;;10.30;93.00;;;;;;5014638;28;20208;-54
2022/04/21 05:25:13;;;;;;;7.53;6.47;;;10.10;93.50;;;;;;5015535;28;20160;-53
2022/04/21 05:27:39;;;;;;;7.60;6.80;;;9.90;93.70;;;;;;5015174;28;20657;-52
2022/04/21 05:32:52;;;;;;;8.10;6.70;;;9.90;95.00;;;;;;5015139;28;20228;-55
2022/04/21 05:35:18;;;;;;;7.63;6.83;;;9.90;94.80;;;;;;5016253;28;20197;-54
2022/04/21 05:37:44;;;;;;;7.90;6.93;;;9.90;95.00;;;;;;5015584;28;20176;-55
2022/04/21 05:40:10;;;;;;;9.20;6.70;;;9.80;95.10;;;;;;5026560;28;20237;-52
2022/04/21 05:42:41;;;;;;;7.77;6.87;;;10.00;94.50;;;;;;5031985;28;20196;-54
2022/04/21 05:45:08;;;;;;;7.30;6.60;;;10.10;93.60;;;;;;5008954;28;20183;-56
2022/04/21 05:47:35;;;;;;;7.33;6.60;;;10.20;94.00;;;;;;5009770;28;20288;-58
2022/04/21 05:50:01;;;;;;;8.03;7.23;;;10.40;93.60;;;;;;5014742;28;20187;-52
2022/04/21 05:52:29;;;;;;;8.17;6.60;;;10.50;93.30;;;;;;5014710;28;20261;-58
2022/04/21 05:54:56;;;;;;;8.13;7.23;;;10.60;92.50;;;;;;5015302;28;20180;-52
2022/04/21 05:57:21;;;;;;;7.70;6.90;;;10.80;92.40;;;;;;5015160;28;20192;-55
2022/04/21 05:59:47;;;;;;;8.87;7.33;;;10.80;92.60;;;;;;5015145;28;20657;-57
2022/04/21 06:02:13;;;;;;;7.50;6.80;;;10.90;91.40;;;;;;5014321;28;20193;-56
2022/04/21 06:04:38;;;;;;;8.00;7.20;;;10.90;91.50;;;;;;5014976;28;20172;-54
2022/04/21 06:07:04;;;;;;;8.17;7.37;;;10.90;91.50;;;;;;5026961;28;20195;-55
2022/04/21 06:09:29;;;;;;;8.93;7.90;;;11.00;91.50;;;;;;5014628;28;20219;-58
2022/04/21 06:11:55;;;;;;;8.13;7.33;;;11.10;90.90;;;;;;5015557;28;20689;-53
2022/04/21 06:14:20;;;;;;;8.83;7.47;;;11.00;91.20;;;;;;5014828;28;20535;-54
2022/04/21 06:16:46;;;;;;;8.63;7.30;;;11.00;91.20;;;;;;5013720;28;20180;-54
2022/04/21 06:19:11;;;;;;;7.67;6.70;;;11.00;91.50;;;;;;5000921;28;20231;-52
2022/04/21 06:21:37;;;;;;;8.63;7.67;;;10.90;91.80;;;;;;5010161;28;20189;-57
2022/04/21 06:24:03;;;;;;;8.60;7.80;;;10.90;92.30;;;;;;4996020;28;20262;-58
2022/04/21 06:26:28;;;;;;;8.00;7.20;;;10.90;92.40;;;;;;5005940;28;20266;-58
2022/04/21 06:28:57;;;;;;;8.10;7.30;;;10.90;93.20;;;;;;5011260;28;20192;-58
2022/04/21 06:31:22;;;;;;;8.10;7.30;;;11.00;93.10;;;;;;5012980;28;20196;-51
2022/04/21 06:33:48;;;;;;;8.93;8.00;;;11.00;91.70;;;;;;5007063;28;20197;-54
2022/04/21 06:36:13;;;;;;;8.73;7.83;;;11.10;91.60;;;;;;5016981;28;20224;-55
2022/04/21 06:38:39;;;;;;;8.97;7.97;;;11.10;91.60;;;;;;5018767;28;20185;-52
2022/04/21 06:41:04;;;;;;;9.37;8.20;;;13.30;92.30;;;;;;5019116;28;20709;-54
2022/04/21 06:48:58;;;;;;;9.70;7.80;;;11.10;91.10;;;;;;5018709;28;20171;-53
2022/04/21 06:51:27;;;;;;;8.93;7.93;;;11.00;91.70;;;;;;5019545;28;20263;-55
2022/04/21 06:53:53;;;;;;;8.83;7.73;;;10.90;91.80;;;;;;5017815;28;20291;-54
2022/04/21 06:56:19;;;;;;;9.33;8.43;;;11.00;92.20;;;;;;5019291;28;20213;-53
2022/04/21 06:58:45;;;;;;;9.03;7.93;;;10.80;92.80;;;;;;5018951;28;20251;-56
2022/04/21 07:01:10;;;;;;;9.87;7.57;;;10.80;93.00;;;;;;5019377;28;20165;-54
2022/04/21 07:03:36;;;;;;;9.33;8.10;;;10.80;92.40;;;;;;5018186;28;20192;-56
2022/04/21 07:06:03;;;;;;;8.17;7.37;;;10.90;92.60;;;;;;5018760;28;20196;-55
2022/04/21 07:08:28;;;;;;;8.20;7.40;;;11.10;92.60;;;;;;5018570;28;20200;-53
2022/04/21 07:10:54;;;;;;;8.43;7.60;;;11.10;91.70;;;;;;5018342;28;20680;-54
2022/04/21 07:13:20;;;;;;;8.57;7.70;;;11.10;91.80;;;;;;5017873;28;20196;-57
2022/04/21 07:15:45;;;;;;;7.97;7.17;;;11.20;91.90;;;;;;5018788;28;20194;-55
2022/04/21 07:18:14;;;;;;;9.67;8.10;;;11.30;92.10;;;;;;5019214;28;20546;-53
2022/04/21 07:20:39;;;;;;;8.37;7.43;;;11.60;91.70;;;;;;5018257;28;20172;-55
2022/04/21 07:23:05;;;;;;;8.13;7.33;;;12.00;91.30;;;;;;5018016;28;20705;-55
2022/04/21 07:25:32;;;;;;;9.87;8.03;;;11.90;90.80;;;;;;5019139;28;20227;-56
2022/04/21 07:27:57;;;;;;;8.27;7.37;;;12.10;90.30;;;;;;5019396;28;20172;-53
2022/04/21 07:30:23;;;;;;;9.17;7.73;;;12.10;90.00;;;;;;5017430;28;20216;-55
2022/04/21 07:32:48;;;;;;;8.63;7.70;;;12.30;89.80;;;;;;5017334;28;20204;-54
2022/04/21 07:35:15;;;;;;;8.83;7.70;;;12.40;88.80;;;;;;5017690;28;20202;-55
2022/04/21 07:37:41;;;;;;;10.07;8.10;;;12.40;88.40;;;;;;5018123;28;20314;-53
2022/04/21 07:40:07;;;;;;;9.37;8.10;;;12.40;87.40;;;;;;5017874;28;20196;-54
2022/04/21 07:42:32;;;;;;;8.33;7.50;;;12.40;89.10;;;;;;5018430;28;20227;-55
2022/04/21 07:44:59;;;;;;;8.83;7.93;;;12.60;90.10;;;;;;5018535;28;20184;-55
2022/04/21 07:47:25;;;;;;;8.87;8.03;;;12.80;89.70;;;;;;5018590;28;20303;-53
2022/04/21 07:49:51;;;;;;;8.60;7.70;;;12.60;89.40;;;;;;5018701;28;20193;-53
2022/04/21 07:55:16;;;;;;;9.23;7.27;;;12.50;89.20;;;;;;5015213;28;20156;-54
2022/04/21 07:57:43;;;;;;;13.20;8.10;;;12.70;90.20;;;;;;5013484;28;20177;-51
2022/04/21 08:00:10;;;;;;;9.27;7.80;;;12.90;90.10;;;;;;5013891;28;20177;-56
2022/04/21 08:02:38;;;;;;;8.67;7.77;;;13.20;89.00;;;;;;5014097;28;20283;-56
2022/04/21 08:05:04;;;;;;;9.67;8.77;;;13.20;89.10;;;;;;5015127;28;20176;-52
2022/04/21 08:07:30;;;;;;;9.17;8.27;;;13.40;90.40;;;;;;5014328;28;20258;-52
2022/04/21 08:09:56;;;;;;;8.67;7.83;;;13.60;89.50;;;;;;5014207;28;20164;-56
2022/04/21 08:12:21;;;;;;;9.03;8.17;;;13.70;87.90;;;;;;5013779;28;20207;-58
2022/04/21 08:14:47;;;;;;;9.17;8.27;;;13.70;85.80;;;;;;5014255;28;20184;-55
2022/04/21 08:17:12;;;;;;;9.43;8.53;;;14.80;89.50;;;;;;5014670;28;20595;-54
2022/04/21 08:19:38;;;;;;;8.83;7.93;;;13.80;85.90;;;;;;5014083;28;20189;-55
2022/04/21 08:22:04;;;;;;;9.10;8.30;;;13.50;86.50;;;;;;5013825;28;20316;-53
2022/04/21 08:32:43;;;;;;;7.97;7.17;;;13.90;84.00;;;;;;5018491;28;20212;-51
2022/04/21 08:35:13;;;;;;;9.13;8.23;;;14.00;84.70;;;;;;5017336;28;20536;-56
2022/04/21 08:37:42;;;;;;;8.67;7.87;;;14.20;83.30;;;;;;5018131;28;20184;-56
2022/04/21 08:40:10;;;;;;;8.57;7.17;;;14.40;82.60;;;;;;5017854;28;20179;-53
2022/04/21 08:42:39;;;;;;;8.17;7.37;;;14.40;82.10;;;;;;5017133;28;20200;-53
2022/04/21 08:45:06;;;;;;;8.60;7.80;;;14.50;83.20;;;;;;5017694;28;20530;-56
2022/04/21 08:47:32;;;;;;;8.10;7.30;;;14.60;82.60;;;;;;5017828;28;20203;-54
2022/04/21 08:50:06;;;;;;;9.00;8.20;;;14.70;82.50;;;;;;5017987;28;20206;-54
2022/04/21 08:52:34;;;;;;;13.20;8.07;;;14.80;81.50;;;;;;5017107;28;20207;-54
2022/04/21 08:55:02;;;;;;;8.43;7.63;;;15.00;81.40;;;;;;5017756;28;20164;-52
2022/04/21 08:57:29;;;;;;;8.47;7.67;;;14.90;80.90;;;;;;5016853;28;20177;-53
2022/04/21 08:59:56;;;;;;;10.60;9.60;;;14.60;80.90;;;;;;5017773;28;20188;-54
2022/04/21 09:02:32;;;;;;;8.60;7.73;;;14.50;82.50;;;;;;5016737;28;20192;-53
2022/04/21 09:04:57;;;;;;;9.40;8.50;;;14.70;82.10;;;;;;5017406;28;20503;-54
2022/04/21 09:07:23;;;;;;;8.60;7.80;;;14.70;80.80;;;;;;5017263;28;20204;-56
2022/04/21 09:10:05;;;;;;;8.37;7.53;;;14.50;81.90;;;;;;5017170;28;20269;-55
2022/04/21 09:12:32;;;;;;;8.50;7.60;;;14.70;82.40;;;;;;5016417;28;20188;-57
2022/04/21 09:14:58;;;;;;;8.80;8.00;;;15.10;80.90;;;;;;5016791;28;20574;-54
2022/04/21 09:17:24;;;;;;;7.63;6.77;;;15.40;80.00;;;;;;5016686;28;20234;-58
2022/04/21 09:19:59;;;;;;;7.93;7.13;;;15.30;79.70;;;;;;5016674;28;20212;-57
2022/04/21 09:22:30;;;;;;;8.17;7.37;;;15.40;80.40;;;;;;5016606;28;20699;-53
2022/04/21 09:24:58;;;;;;;7.23;6.57;;;15.60;79.70;;;;;;5017100;28;20196;-53
2022/04/21 09:27:24;;;;;;;7.27;6.60;;;15.90;80.10;;;;;;5016895;28;20227;-55
2022/04/21 09:29:50;;;;;;;7.87;7.07;;;16.30;78.90;;;;;;5016993;28;20666;-56
2022/04/21 09:32:17;;;;;;;8.10;7.30;;;16.30;76.10;;;;;;5016247;28;20200;-54
2022/04/21 09:34:50;;;;;;;7.70;6.50;;;16.40;78.20;;;;;;5016656;28;20168;-53
2022/04/21 09:37:20;;;;;;;7.97;7.17;;;16.30;77.50;;;;;;5016410;28;20243;-55
2022/04/21 09:39:54;;;;;;;7.10;6.50;;;16.30;76.50;;;;;;5016209;28;20178;-56
2022/04/21 09:42:28;;;;;;;7.43;6.60;;;16.50;75.20;;;;;;5016111;28;20173;-54
2022/04/21 09:47:49;;;;;;;7.30;6.60;;;16.60;76.00;;;;;;5016279;28;20278;-52
2022/04/21 09:50:14;;;;;;;7.43;6.30;;;16.60;73.80;;;;;;5015432;28;20653;-55
2022/04/21 09:52:53;;;;;;;6.83;6.23;;;16.30;74.10;;;;;;5014893;28;20197;-53
2022/04/21 09:55:22;;;;;;;6.97;6.30;;;16.40;73.40;;;;;;5016046;28;20189;-53
2022/04/21 09:58:12;;;;;;;7.20;6.50;;;16.60;74.40;;;;;;5015443;28;20169;-55
2022/04/21 10:00:39;;;;;;;6.07;5.57;;;16.70;71.80;;;;;;5005286;28;20268;-55
2022/04/21 10:03:06;;;;;;;5.93;5.33;;;16.60;71.20;;;;;;5014814;28;20291;-53
2022/04/21 10:05:34;;;;;;;6.60;6.00;;;16.90;73.00;;;;;;5015295;28;20180;-52
2022/04/21 10:08:01;;;;;;;6.10;5.50;;;17.20;69.30;;;;;;5015226;28;20209;-52
2022/04/21 10:10:32;;;;;;;6.47;5.87;;;17.10;71.20;;;;;;5013541;28;20535;-56
2022/04/21 10:13:02;;;;;;;6.73;5.83;;;17.10;71.20;;;;;;5011541;28;20187;-54
2022/04/21 10:15:29;;;;;;;6.20;5.63;;;17.30;72.20;;;;;;5013901;28;20286;-52
2022/04/21 10:17:55;;;;;;;7.07;6.40;;;17.70;72.00;;;;;;5013418;28;20184;-55
2022/04/21 10:20:25;;;;;;;7.17;6.00;;;17.70;68.10;;;;;;5013333;28;20168;-52
2022/04/21 10:22:52;;;;;;;7.10;6.50;;;17.90;70.70;;;;;;5012764;28;20685;-55
2022/04/21 10:25:23;;;;;;;7.03;6.33;;;18.20;68.30;;;;;;5011045;28;20235;-54
2022/04/21 10:27:49;;;;;;;6.13;5.63;;;18.30;67.70;;;;;;5013878;28;20185;-55
2022/04/21 10:30:20;;;;;;;7.63;6.77;;;18.60;68.90;;;;;;5013233;28;20173;-55
2022/04/21 10:32:52;;;;;;;6.57;5.97;;;18.90;70.90;;;;;;5013355;28;20239;-57
2022/04/21 10:35:28;;;;;;;7.37;6.67;;;19.00;69.60;;;;;;5010576;28;20191;-55
2022/04/21 10:38:18;;;;;;;7.67;6.97;;;18.90;67.50;;;;;;5013628;28;20200;-55
2022/04/21 10:41:03;;;;;;;8.17;6.97;;;18.80;65.80;;;;;;5011769;28;20177;-53
2022/04/21 10:43:47;;;;;;;8.03;7.33;;;18.50;67.90;;;;;;5011924;28;20224;-52
2022/04/21 10:46:21;;;;;;;7.77;6.97;;;18.30;65.80;;;;;;5012098;28;20195;-56
2022/04/21 10:48:47;;;;;;;7.87;7.17;;;18.00;66.30;;;;;;5013557;28;20187;-55
2022/04/21 10:51:32;;;;;;;7.93;7.23;;;17.80;67.10;;;;;;5013505;28;20184;-55
2022/04/21 10:59:31;;;;;;;7.80;7.10;;;17.40;67.50;;;;;;5010845;28;20287;-54
2022/04/21 11:02:11;;;;;;;7.00;6.33;;;17.60;68.40;;;;;;4994671;28;20530;-55
2022/04/21 11:04:37;;;;;;;7.60;6.80;;;17.80;67.70;;;;;;5012248;28;20555;-53
2022/04/21 11:07:13;;;;;;;6.43;5.83;;;17.80;66.00;;;;;;5012112;28;20275;-53
2022/04/21 11:09:44;;;;;;;6.73;6.13;;;17.90;68.70;;;;;;5012733;28;20175;-54
2022/04/21 11:12:14;;;;;;;7.00;6.30;;;18.20;70.40;;;;;;5011511;28;20169;-54
2022/04/21 11:14:40;;;;;;;6.90;6.30;;;18.40;66.20;;;;;;5012020;28;20165;-53
2022/04/21 11:17:07;;;;;;;6.77;6.17;;;18.50;66.30;;;;;;5012160;28;20679;-53
2022/04/21 11:19:36;;;;;;;7.70;6.83;;;18.70;67.40;;;;;;5012254;28;20196;-55
2022/04/21 11:22:39;;;;;;;7.67;6.97;;;18.70;66.00;;;;;;5012020;28;20246;-54
2022/04/21 11:25:06;;;;;;;7.30;6.70;;;18.50;64.60;;;;;;5010911;28;20275;-53
2022/04/21 11:27:36;;;;;;;7.33;6.60;;;18.40;64.30;;;;;;5011774;28;20263;-53
2022/04/21 11:30:05;;;;;;;6.10;5.60;;;18.60;63.80;;;;;;5011796;28;20207;-54
2022/04/21 11:32:31;;;;;;;6.27;5.67;;;18.80;65.00;;;;;;5011438;28;20192;-52
2022/04/21 11:34:58;;;;;;;6.80;6.10;;;19.10;64.40;;;;;;5012275;28;20523;-54
2022/04/21 11:37:23;;;;;;;6.13;5.53;;;19.30;59.00;;;;;;5009707;28;20235;-52
2022/04/21 11:39:49;;;;;;;6.00;5.50;;;19.40;60.30;;;;;;5011950;28;20177;-51
2022/04/21 11:42:27;;;;;;;7.00;6.30;;;19.50;60.50;;;;;;4995184;28;20208;-54
2022/04/21 11:44:54;;;;;;;6.80;6.20;;;19.90;59.40;;;;;;5011058;28;20187;-53
2022/04/21 11:47:20;;;;;;;6.47;5.87;;;19.80;59.70;;;;;;5009941;28;20192;-54
2022/04/21 11:50:01;;;;;;;5.20;4.70;;;19.90;61.90;;;;;;5013284;28;20200;-51
2022/04/21 11:52:29;;;;;;;8.85;5.18;;;20.60;62.30;;;;;;5010160;28;20256;-52
2022/04/21 11:55:03;;;;;;;6.00;5.40;;;21.00;57.00;;;;;;5010300;28;20178;-53
2022/04/21 11:57:40;;;;;;;5.38;4.93;;;21.00;57.20;;;;;;5012726;28;20225;-53
2022/04/21 12:00:06;;;;;;;5.10;4.70;;;20.90;56.60;;;;;;5014895;28;20581;-54
2022/04/21 12:07:59;;;;;;;4.95;4.55;;;21.30;54.80;;;;;;4999358;28;20218;-51
2022/04/21 12:10:25;;;;;;;5.05;4.55;;;21.20;57.70;;;;;;5016499;28;20176;-55
2022/04/21 12:12:51;;;;;;;4.63;4.22;;;21.50;56.30;;;;;;5016096;28;20193;-54
2022/04/21 12:15:27;;;;;;;5.18;4.68;;;21.60;56.50;;;;;;5016834;28;20197;-54
2022/04/21 12:18:00;;;;;;;4.60;4.22;;;21.90;55.90;;;;;;5017087;28;20173;-55
2022/04/21 12:20:27;;;;;;;4.60;4.20;;;21.60;53.00;;;;;;5015961;28;20315;-55
2022/04/21 12:22:54;;;;;;;3.83;3.53;;;20.70;53.50;;;;;;5015867;28;20204;-57
2022/04/21 12:25:31;;;;;;;4.45;3.60;;;20.10;56.00;;;;;;5016822;28;20515;-58
2022/04/21 12:28:07;;;;;;;3.58;3.28;;;20.20;58.20;;;;;;5016398;28;20207;-54
2022/04/21 12:30:38;;;;;;;3.30;3.00;;;20.40;55.80;;;;;;5017285;28;20177;-51
2022/04/21 12:33:04;;;;;;;3.80;3.50;;;20.70;56.50;;;;;;5016150;28;20560;-53
2022/04/21 12:35:45;;;;;;;3.58;3.20;;;21.00;55.00;;;;;;5016251;28;20169;-57
2022/04/21 12:40:59;;;;;;;3.42;3.13;;;21.40;55.70;;;;;;5017051;28;20185;-56
2022/04/21 12:43:30;;;;;;;3.30;3.05;;;21.30;54.10;;;;;;5015739;28;20205;-56
2022/04/21 12:45:59;;;;;;;3.70;3.40;;;21.10;55.20;;;;;;5015989;28;20206;-53
2022/04/21 12:48:27;;;;;;;3.88;3.58;;;21.00;54.70;;;;;;5016350;28;20188;-51
2022/04/21 12:50:53;;;;;;;3.90;3.60;;;21.00;55.00;;;;;;5016675;28;20202;-56
2022/04/21 12:53:28;;;;;;;4.88;4.03;;;21.30;58.40;;;;;;5016434;28;20235;-55
2022/04/21 12:55:54;;;;;;;3.70;3.40;;;21.50;54.70;;;;;;5016969;28;20687;-55
2022/04/21 12:58:31;;;;;;;4.80;3.70;;;21.70;55.50;;;;;;5012508;28;20200;-56
2022/04/21 13:01:00;;;;;;;8.70;3.72;;;21.40;61.70;;;;;;5006451;28;20255;-52
2022/04/21 13:03:26;;;;;;;4.03;3.65;;;;;;;;;;5007538;28;20188;-52
2022/04/21 13:05:53;;;;;;;4.10;3.70;;;21.50;54.80;;;;;;5015197;28;20176;-57
2022/04/21 13:08:19;;;;;;;3.92;3.60;;;21.80;57.10;;;;;;5015236;28;20191;-54
2022/04/21 13:10:45;;;;;;;3.78;3.47;;;22.20;58.30;;;;;;5013564;28;20251;-52
2022/04/21 13:13:10;;;;;;;4.00;3.70;;;22.60;62.50;;;;;;5018461;28;20282;-53
2022/04/21 13:15:37;;;;;;;4.38;3.80;;;;;;;;;;5018525;28;20312;-56
2022/04/21 13:18:03;;;;;;;3.85;3.55;;;;;;;;;;5013897;28;20175;-58
2022/04/21 13:23:13;;;;;;;4.30;3.60;;;22.10;59.80;;;;;;5013639;28;20199;-56
2022/04/21 13:25:38;;;;;;;3.80;3.50;;;22.30;67.00;;;;;;5013532;28;20266;-53
2022/04/21 13:28:04;;;;;;;3.95;3.55;;;22.40;64.50;;;;;;5013675;28;20204;-57
2022/04/21 13:30:29;;;;;;;3.67;3.38;;;22.40;60.70;;;;;;5013649;28;20227;-54
2022/04/21 13:35:42;;;;;;;3.80;3.50;;;22.10;65.00;;;;;;5013986;28;20667;-56
2022/04/21 13:38:08;;;;;;;4.80;4.30;;;20.60;65.80;;;;;;5013446;28;20258;-54
2022/04/21 13:40:34;;;;;;;4.63;4.22;;;20.60;56.50;;;;;;5013611;28;20176;-58
2022/04/21 13:43:00;;;;;;;4.00;3.70;;;;;;;;;;5012986;28;20279;-57
2022/04/21 13:45:26;;;;;;;3.97;3.67;;;19.90;68.10;;;;;;5013486;28;20176;-55
2022/04/21 13:47:52;;;;;;;3.70;3.40;;;20.60;71.10;;;;;;5013210;28;20207;-53
2022/04/21 13:50:18;;;;;;;5.32;3.63;;;20.70;64.30;;;;;;5013394;28;20196;-57
2022/04/21 13:52:44;;;;;;;5.72;5.22;;;;;;;;;;4995462;28;20243;-54
2022/04/21 13:55:11;;;;;;;5.30;4.80;;;20.80;69.90;;;;;;5013449;28;20632;-57
2022/04/21 13:57:38;;;;;;;5.22;4.72;;;;;;;;;;5013085;28;20655;-57